sensor_id;sensor_type;location;lat;lon;timestamp;P1;durP1;ratioP1;P2;durP2;ratioP2
70825;SDS011;58446;41.490;22.098;2023-03-11T00:00:58;6.20;;;3.90;;
70825;SDS011;58446;41.490;22.098;2023-03-11T00:03:24;7.25;;;4.10;;
70825;SDS011;58446;41.490;22.098;2023-03-11T00:05:53;8.35;;;4.00;;
70825;SDS011;58446;41.490;22.098;2023-03-11T00:08:23;7.57;;;3.58;;
70825;SDS011;58446;41.490;22.098;2023-03-11T00:10:51;7.53;;;3.50;;
70825;SDS011;58446;41.490;22.098;2023-03-11T00:13:19;6.07;;;3.70;;
70825;SDS011;58446;41.490;22.098;2023-03-11T00:15:45;7.03;;;3.88;;
70825;SDS011;58446;41.490;22.098;2023-03-11T00:18:13;6.72;;;3.80;;
70825;SDS011;58446;41.490;22.098;2023-03-11T00:20:41;7.63;;;3.93;;
70825;SDS011;58446;41.490;22.098;2023-03-11T00:23:10;6.43;;;3.55;;
70825;SDS011;58446;41.490;22.098;2023-03-11T00:25:37;9.52;;;4.38;;
70825;SDS011;58446;41.490;22.098;2023-03-11T00:28:04;7.85;;;3.50;;
70825;SDS011;58446;41.490;22.098;2023-03-11T00:30:34;5.93;;;3.03;;
70825;SDS011;58446;41.490;22.098;2023-03-11T00:33:01;4.93;;;3.03;;
70825;SDS011;58446;41.490;22.098;2023-03-11T00:35:28;6.28;;;3.17;;
70825;SDS011;58446;41.490;22.098;2023-03-11T00:37:57;10.40;;;5.47;;
70825;SDS011;58446;41.490;22.098;2023-03-11T00:40:25;8.43;;;3.77;;
70825;SDS011;58446;41.490;22.098;2023-03-11T00:42:54;6.85;;;3.55;;
70825;SDS011;58446;41.490;22.098;2023-03-11T00:45:19;9.88;;;5.15;;
70825;SDS011;58446;41.490;22.098;2023-03-11T00:47:45;9.75;;;4.97;;
70825;SDS011;58446;41.490;22.098;2023-03-11T00:50:19;10.40;;;5.67;;
70825;SDS011;58446;41.490;22.098;2023-03-11T00:52:46;10.02;;;5.47;;
70825;SDS011;58446;41.490;22.098;2023-03-11T00:55:14;10.30;;;4.78;;
70825;SDS011;58446;41.490;22.098;2023-03-11T00:57:41;12.10;;;5.32;;
70825;SDS011;58446;41.490;22.098;2023-03-11T01:00:08;6.63;;;3.00;;
70825;SDS011;58446;41.490;22.098;2023-03-11T01:02:38;7.38;;;2.88;;
70825;SDS011;58446;41.490;22.098;2023-03-11T01:05:04;9.95;;;2.72;;
70825;SDS011;58446;41.490;22.098;2023-03-11T01:07:30;6.80;;;3.33;;
70825;SDS011;58446;41.490;22.098;2023-03-11T01:09:57;5.95;;;3.08;;
70825;SDS011;58446;41.490;22.098;2023-03-11T01:12:23;6.15;;;3.05;;
70825;SDS011;58446;41.490;22.098;2023-03-11T01:14:49;6.60;;;3.28;;
70825;SDS011;58446;41.490;22.098;2023-03-11T01:17:15;6.20;;;3.43;;
70825;SDS011;58446;41.490;22.098;2023-03-11T01:19:40;5.10;;;2.53;;
70825;SDS011;58446;41.490;22.098;2023-03-11T01:22:06;4.72;;;2.10;;
70825;SDS011;58446;41.490;22.098;2023-03-11T01:24:32;4.65;;;2.00;;
70825;SDS011;58446;41.490;22.098;2023-03-11T01:26:57;5.00;;;2.47;;
70825;SDS011;58446;41.490;22.098;2023-03-11T01:29:23;5.10;;;3.03;;
70825;SDS011;58446;41.490;22.098;2023-03-11T01:31:49;5.18;;;2.63;;
70825;SDS011;58446;41.490;22.098;2023-03-11T01:34:15;4.65;;;2.70;;
70825;SDS011;58446;41.490;22.098;2023-03-11T01:36:40;5.20;;;2.90;;
70825;SDS011;58446;41.490;22.098;2023-03-11T01:39:06;4.63;;;2.63;;
70825;SDS011;58446;41.490;22.098;2023-03-11T01:41:31;4.60;;;2.90;;
70825;SDS011;58446;41.490;22.098;2023-03-11T01:43:57;6.33;;;3.47;;
70825;SDS011;58446;41.490;22.098;2023-03-11T01:46:24;5.50;;;2.40;;
70825;SDS011;58446;41.490;22.098;2023-03-11T01:49:10;5.68;;;3.47;;
70825;SDS011;58446;41.490;22.098;2023-03-11T01:51:37;6.80;;;3.23;;
70825;SDS011;58446;41.490;22.098;2023-03-11T01:54:14;8.80;;;3.80;;
70825;SDS011;58446;41.490;22.098;2023-03-11T01:56:42;8.90;;;4.47;;
70825;SDS011;58446;41.490;22.098;2023-03-11T01:59:10;5.55;;;2.85;;
70825;SDS011;58446;41.490;22.098;2023-03-11T02:01:40;10.02;;;4.75;;
70825;SDS011;58446;41.490;22.098;2023-03-11T02:04:12;8.57;;;4.70;;
70825;SDS011;58446;41.490;22.098;2023-03-11T02:06:38;8.32;;;4.20;;
70825;SDS011;58446;41.490;22.098;2023-03-11T02:09:05;5.75;;;3.25;;
70825;SDS011;58446;41.490;22.098;2023-03-11T02:11:31;6.68;;;3.22;;
70825;SDS011;58446;41.490;22.098;2023-03-11T02:13:58;5.03;;;2.50;;
70825;SDS011;58446;41.490;22.098;2023-03-11T02:16:26;5.00;;;2.78;;
70825;SDS011;58446;41.490;22.098;2023-03-11T02:18:52;4.55;;;2.55;;
70825;SDS011;58446;41.490;22.098;2023-03-11T02:26:21;4.10;;;2.25;;
70825;SDS011;58446;41.490;22.098;2023-03-11T02:29:02;6.15;;;2.53;;
70825;SDS011;58446;41.490;22.098;2023-03-11T02:31:31;5.53;;;2.40;;
70825;SDS011;58446;41.490;22.098;2023-03-11T02:33:58;4.50;;;2.47;;
70825;SDS011;58446;41.490;22.098;2023-03-11T02:36:34;5.43;;;2.33;;
70825;SDS011;58446;41.490;22.098;2023-03-11T02:39:05;8.02;;;3.90;;
70825;SDS011;58446;41.490;22.098;2023-03-11T02:41:32;7.93;;;4.28;;
70825;SDS011;58446;41.490;22.098;2023-03-11T02:44:03;7.57;;;3.83;;
70825;SDS011;58446;41.490;22.098;2023-03-11T02:46:32;6.67;;;2.87;;
70825;SDS011;58446;41.490;22.098;2023-03-11T02:49:00;6.72;;;3.30;;
70825;SDS011;58446;41.490;22.098;2023-03-11T02:51:26;8.95;;;4.25;;
70825;SDS011;58446;41.490;22.098;2023-03-11T02:53:54;8.77;;;3.90;;
70825;SDS011;58446;41.490;22.098;2023-03-11T02:56:22;7.03;;;3.60;;
70825;SDS011;58446;41.490;22.098;2023-03-11T02:58:47;5.93;;;3.20;;
70825;SDS011;58446;41.490;22.098;2023-03-11T03:01:13;6.13;;;3.00;;
70825;SDS011;58446;41.490;22.098;2023-03-11T03:03:39;6.45;;;3.15;;
70825;SDS011;58446;41.490;22.098;2023-03-11T03:06:04;5.60;;;3.20;;
70825;SDS011;58446;41.490;22.098;2023-03-11T03:08:31;5.28;;;2.85;;
70825;SDS011;58446;41.490;22.098;2023-03-11T03:10:56;5.63;;;3.10;;
70825;SDS011;58446;41.490;22.098;2023-03-11T03:13:24;5.68;;;3.10;;
70825;SDS011;58446;41.490;22.098;2023-03-11T03:15:50;5.65;;;3.35;;
70825;SDS011;58446;41.490;22.098;2023-03-11T03:18:16;5.80;;;3.03;;
70825;SDS011;58446;41.490;22.098;2023-03-11T03:20:42;6.40;;;3.93;;
70825;SDS011;58446;41.490;22.098;2023-03-11T03:23:07;6.60;;;2.95;;
70825;SDS011;58446;41.490;22.098;2023-03-11T03:25:33;6.00;;;2.87;;
70825;SDS011;58446;41.490;22.098;2023-03-11T03:27:59;4.30;;;2.13;;
70825;SDS011;58446;41.490;22.098;2023-03-11T03:30:24;6.07;;;3.00;;
70825;SDS011;58446;41.490;22.098;2023-03-11T03:32:50;5.32;;;2.83;;
70825;SDS011;58446;41.490;22.098;2023-03-11T03:35:16;6.60;;;3.53;;
70825;SDS011;58446;41.490;22.098;2023-03-11T03:37:42;9.40;;;5.00;;
70825;SDS011;58446;41.490;22.098;2023-03-11T03:40:08;9.27;;;4.57;;
70825;SDS011;58446;41.490;22.098;2023-03-11T03:42:34;9.07;;;4.55;;
70825;SDS011;58446;41.490;22.098;2023-03-11T03:45:01;8.52;;;4.90;;
70825;SDS011;58446;41.490;22.098;2023-03-11T03:47:30;9.50;;;4.90;;
70825;SDS011;58446;41.490;22.098;2023-03-11T03:49:56;12.77;;;6.72;;
70825;SDS011;58446;41.490;22.098;2023-03-11T03:52:22;9.03;;;4.70;;
70825;SDS011;58446;41.490;22.098;2023-03-11T03:54:47;6.97;;;3.53;;
70825;SDS011;58446;41.490;22.098;2023-03-11T03:57:13;8.57;;;4.97;;
70825;SDS011;58446;41.490;22.098;2023-03-11T03:59:39;9.03;;;5.00;;
70825;SDS011;58446;41.490;22.098;2023-03-11T04:02:04;7.03;;;4.47;;
70825;SDS011;58446;41.490;22.098;2023-03-11T04:04:30;8.67;;;4.87;;
70825;SDS011;58446;41.490;22.098;2023-03-11T04:06:56;9.18;;;5.03;;
70825;SDS011;58446;41.490;22.098;2023-03-11T04:09:22;9.87;;;4.90;;
70825;SDS011;58446;41.490;22.098;2023-03-11T04:11:47;6.68;;;3.83;;
70825;SDS011;58446;41.490;22.098;2023-03-11T04:14:13;9.77;;;5.00;;
70825;SDS011;58446;41.490;22.098;2023-03-11T04:16:39;8.57;;;4.70;;
70825;SDS011;58446;41.490;22.098;2023-03-11T04:19:04;7.53;;;3.83;;
70825;SDS011;58446;41.490;22.098;2023-03-11T04:21:30;7.38;;;3.83;;
70825;SDS011;58446;41.490;22.098;2023-03-11T04:23:56;6.00;;;3.50;;
70825;SDS011;58446;41.490;22.098;2023-03-11T04:26:22;6.72;;;3.65;;
70825;SDS011;58446;41.490;22.098;2023-03-11T04:28:48;6.47;;;3.70;;
70825;SDS011;58446;41.490;22.098;2023-03-11T04:31:13;5.63;;;3.50;;
70825;SDS011;58446;41.490;22.098;2023-03-11T04:33:39;7.17;;;3.43;;
70825;SDS011;58446;41.490;22.098;2023-03-11T04:36:05;12.32;;;5.03;;
70825;SDS011;58446;41.490;22.098;2023-03-11T04:38:32;11.43;;;4.50;;
70825;SDS011;58446;41.490;22.098;2023-03-11T04:40:59;6.97;;;3.65;;
70825;SDS011;58446;41.490;22.098;2023-03-11T04:43:26;8.25;;;3.80;;
70825;SDS011;58446;41.490;22.098;2023-03-11T04:45:51;6.83;;;3.57;;
70825;SDS011;58446;41.490;22.098;2023-03-11T04:48:17;6.57;;;3.30;;
70825;SDS011;58446;41.490;22.098;2023-03-11T04:50:43;7.50;;;3.67;;
70825;SDS011;58446;41.490;22.098;2023-03-11T04:53:09;5.67;;;3.50;;
70825;SDS011;58446;41.490;22.098;2023-03-11T04:55:34;6.03;;;3.60;;
70825;SDS011;58446;41.490;22.098;2023-03-11T04:58:00;4.60;;;2.50;;
70825;SDS011;58446;41.490;22.098;2023-03-11T05:00:25;5.33;;;2.57;;
70825;SDS011;58446;41.490;22.098;2023-03-11T05:02:51;4.50;;;2.65;;
70825;SDS011;58446;41.490;22.098;2023-03-11T05:05:17;4.43;;;2.72;;
70825;SDS011;58446;41.490;22.098;2023-03-11T05:07:44;5.73;;;2.57;;
70825;SDS011;58446;41.490;22.098;2023-03-11T05:10:09;4.32;;;2.35;;
70825;SDS011;58446;41.490;22.098;2023-03-11T05:12:36;4.30;;;2.50;;
70825;SDS011;58446;41.490;22.098;2023-03-11T05:15:01;5.67;;;3.00;;
70825;SDS011;58446;41.490;22.098;2023-03-11T05:17:27;5.60;;;3.22;;
70825;SDS011;58446;41.490;22.098;2023-03-11T05:19:53;6.27;;;3.60;;
70825;SDS011;58446;41.490;22.098;2023-03-11T05:22:19;6.68;;;3.67;;
70825;SDS011;58446;41.490;22.098;2023-03-11T05:24:45;25.42;;;13.13;;
70825;SDS011;58446;41.490;22.098;2023-03-11T05:27:11;11.03;;;5.40;;
70825;SDS011;58446;41.490;22.098;2023-03-11T05:29:37;47.40;;;28.27;;
70825;SDS011;58446;41.490;22.098;2023-03-11T05:32:03;21.98;;;13.50;;
70825;SDS011;58446;41.490;22.098;2023-03-11T05:34:29;26.65;;;16.20;;
70825;SDS011;58446;41.490;22.098;2023-03-11T05:36:55;35.83;;;20.17;;
70825;SDS011;58446;41.490;22.098;2023-03-11T05:39:21;25.65;;;16.38;;
70825;SDS011;58446;41.490;22.098;2023-03-11T05:41:46;40.93;;;31.00;;
70825;SDS011;58446;41.490;22.098;2023-03-11T05:44:12;26.05;;;15.65;;
70825;SDS011;58446;41.490;22.098;2023-03-11T05:46:38;24.80;;;16.87;;
70825;SDS011;58446;41.490;22.098;2023-03-11T05:49:03;19.43;;;12.70;;
70825;SDS011;58446;41.490;22.098;2023-03-11T05:51:29;54.53;;;29.27;;
70825;SDS011;58446;41.490;22.098;2023-03-11T05:53:55;53.57;;;29.00;;
70825;SDS011;58446;41.490;22.098;2023-03-11T05:56:21;70.15;;;41.90;;
70825;SDS011;58446;41.490;22.098;2023-03-11T05:58:47;107.60;;;59.00;;
70825;SDS011;58446;41.490;22.098;2023-03-11T06:01:14;77.35;;;49.40;;
70825;SDS011;58446;41.490;22.098;2023-03-11T06:03:42;60.77;;;39.23;;
70825;SDS011;58446;41.490;22.098;2023-03-11T06:06:09;39.28;;;26.35;;
70825;SDS011;58446;41.490;22.098;2023-03-11T06:08:36;35.88;;;22.30;;
70825;SDS011;58446;41.490;22.098;2023-03-11T06:11:02;37.83;;;23.55;;
70825;SDS011;58446;41.490;22.098;2023-03-11T06:13:29;46.80;;;28.53;;
70825;SDS011;58446;41.490;22.098;2023-03-11T06:15:54;16.17;;;9.27;;
70825;SDS011;58446;41.490;22.098;2023-03-11T06:18:20;11.30;;;6.22;;
70825;SDS011;58446;41.490;22.098;2023-03-11T06:20:46;18.43;;;12.37;;
70825;SDS011;58446;41.490;22.098;2023-03-11T06:23:12;8.82;;;4.72;;
70825;SDS011;58446;41.490;22.098;2023-03-11T06:25:37;6.00;;;2.60;;
70825;SDS011;58446;41.490;22.098;2023-03-11T06:28:03;5.05;;;2.45;;
70825;SDS011;58446;41.490;22.098;2023-03-11T06:30:29;10.73;;;6.80;;
70825;SDS011;58446;41.490;22.098;2023-03-11T06:32:54;34.95;;;21.33;;
70825;SDS011;58446;41.490;22.098;2023-03-11T06:35:20;49.43;;;33.00;;
70825;SDS011;58446;41.490;22.098;2023-03-11T06:37:46;32.35;;;20.73;;
70825;SDS011;58446;41.490;22.098;2023-03-11T06:40:11;23.00;;;15.60;;
70825;SDS011;58446;41.490;22.098;2023-03-11T06:42:38;36.47;;;20.50;;
70825;SDS011;58446;41.490;22.098;2023-03-11T06:45:04;29.50;;;17.35;;
70825;SDS011;58446;41.490;22.098;2023-03-11T06:47:30;25.98;;;16.20;;
70825;SDS011;58446;41.490;22.098;2023-03-11T06:49:56;22.00;;;14.03;;
70825;SDS011;58446;41.490;22.098;2023-03-11T06:52:22;13.98;;;8.40;;
70825;SDS011;58446;41.490;22.098;2023-03-11T06:54:47;5.87;;;2.93;;
70825;SDS011;58446;41.490;22.098;2023-03-11T06:57:14;6.60;;;3.00;;
70825;SDS011;58446;41.490;22.098;2023-03-11T06:59:40;7.40;;;4.65;;
70825;SDS011;58446;41.490;22.098;2023-03-11T07:02:06;8.13;;;4.27;;
70825;SDS011;58446;41.490;22.098;2023-03-11T07:04:36;5.80;;;3.28;;
70825;SDS011;58446;41.490;22.098;2023-03-11T07:07:02;6.20;;;2.30;;
70825;SDS011;58446;41.490;22.098;2023-03-11T07:09:27;5.05;;;2.40;;
70825;SDS011;58446;41.490;22.098;2023-03-11T07:11:53;18.92;;;9.23;;
70825;SDS011;58446;41.490;22.098;2023-03-11T07:14:19;18.27;;;10.63;;
70825;SDS011;58446;41.490;22.098;2023-03-11T07:16:45;20.25;;;12.95;;
70825;SDS011;58446;41.490;22.098;2023-03-11T07:19:11;21.13;;;13.32;;
70825;SDS011;58446;41.490;22.098;2023-03-11T07:21:38;24.27;;;15.10;;
70825;SDS011;58446;41.490;22.098;2023-03-11T07:24:04;20.10;;;12.88;;
70825;SDS011;58446;41.490;22.098;2023-03-11T07:26:31;24.63;;;15.93;;
70825;SDS011;58446;41.490;22.098;2023-03-11T07:28:58;24.40;;;14.85;;
70825;SDS011;58446;41.490;22.098;2023-03-11T07:31:25;21.30;;;15.38;;
70825;SDS011;58446;41.490;22.098;2023-03-11T07:33:52;15.40;;;9.60;;
70825;SDS011;58446;41.490;22.098;2023-03-11T07:36:19;20.20;;;13.10;;
70825;SDS011;58446;41.490;22.098;2023-03-11T07:38:46;16.95;;;11.45;;
70825;SDS011;58446;41.490;22.098;2023-03-11T07:41:13;25.17;;;15.82;;
70825;SDS011;58446;41.490;22.098;2023-03-11T07:43:40;37.92;;;19.88;;
70825;SDS011;58446;41.490;22.098;2023-03-11T07:46:08;25.77;;;14.60;;
70825;SDS011;58446;41.490;22.098;2023-03-11T07:48:36;32.53;;;27.58;;
70825;SDS011;58446;41.490;22.098;2023-03-11T07:51:04;29.10;;;20.42;;
70825;SDS011;58446;41.490;22.098;2023-03-11T07:53:32;20.75;;;15.95;;
70825;SDS011;58446;41.490;22.098;2023-03-11T07:55:59;22.75;;;17.73;;
70825;SDS011;58446;41.490;22.098;2023-03-11T07:58:25;26.90;;;18.60;;
70825;SDS011;58446;41.490;22.098;2023-03-11T08:00:51;19.52;;;13.25;;
70825;SDS011;58446;41.490;22.098;2023-03-11T08:03:18;21.15;;;14.07;;
70825;SDS011;58446;41.490;22.098;2023-03-11T08:05:44;18.52;;;12.48;;
70825;SDS011;58446;41.490;22.098;2023-03-11T08:08:10;16.00;;;9.93;;
70825;SDS011;58446;41.490;22.098;2023-03-11T08:10:36;13.45;;;8.23;;
70825;SDS011;58446;41.490;22.098;2023-03-11T08:13:02;12.80;;;7.60;;
70825;SDS011;58446;41.490;22.098;2023-03-11T08:15:27;11.57;;;6.03;;
70825;SDS011;58446;41.490;22.098;2023-03-11T08:17:53;12.50;;;7.60;;
70825;SDS011;58446;41.490;22.098;2023-03-11T08:20:18;10.35;;;6.28;;
70825;SDS011;58446;41.490;22.098;2023-03-11T08:22:44;8.50;;;5.30;;
70825;SDS011;58446;41.490;22.098;2023-03-11T08:25:10;9.20;;;4.67;;
70825;SDS011;58446;41.490;22.098;2023-03-11T08:27:35;8.35;;;3.30;;
70825;SDS011;58446;41.490;22.098;2023-03-11T08:30:03;7.13;;;4.32;;
70825;SDS011;58446;41.490;22.098;2023-03-11T08:32:30;6.80;;;3.90;;
70825;SDS011;58446;41.490;22.098;2023-03-11T08:34:56;6.95;;;2.90;;
70825;SDS011;58446;41.490;22.098;2023-03-11T08:37:22;5.78;;;2.97;;
70825;SDS011;58446;41.490;22.098;2023-03-11T08:39:48;4.80;;;2.60;;
70825;SDS011;58446;41.490;22.098;2023-03-11T08:42:14;4.70;;;2.53;;
70825;SDS011;58446;41.490;22.098;2023-03-11T08:44:41;5.57;;;2.13;;
70825;SDS011;58446;41.490;22.098;2023-03-11T08:47:06;4.72;;;1.95;;
70825;SDS011;58446;41.490;22.098;2023-03-11T08:49:32;5.00;;;2.60;;
70825;SDS011;58446;41.490;22.098;2023-03-11T08:52:00;5.93;;;3.10;;
70825;SDS011;58446;41.490;22.098;2023-03-11T08:54:26;5.90;;;2.60;;
70825;SDS011;58446;41.490;22.098;2023-03-11T08:56:52;5.90;;;2.70;;
70825;SDS011;58446;41.490;22.098;2023-03-11T08:59:17;5.30;;;2.60;;
70825;SDS011;58446;41.490;22.098;2023-03-11T09:01:43;4.93;;;2.30;;
70825;SDS011;58446;41.490;22.098;2023-03-11T09:04:08;4.80;;;2.37;;
70825;SDS011;58446;41.490;22.098;2023-03-11T09:06:34;6.50;;;2.67;;
70825;SDS011;58446;41.490;22.098;2023-03-11T09:09:00;6.53;;;1.97;;
70825;SDS011;58446;41.490;22.098;2023-03-11T09:11:26;5.03;;;2.30;;
70825;SDS011;58446;41.490;22.098;2023-03-11T09:13:51;5.70;;;2.73;;
70825;SDS011;58446;41.490;22.098;2023-03-11T09:16:18;5.88;;;2.72;;
70825;SDS011;58446;41.490;22.098;2023-03-11T09:18:47;5.20;;;2.70;;
70825;SDS011;58446;41.490;22.098;2023-03-11T09:21:13;5.70;;;2.70;;
70825;SDS011;58446;41.490;22.098;2023-03-11T09:23:38;5.57;;;2.90;;
70825;SDS011;58446;41.490;22.098;2023-03-11T09:26:04;6.63;;;2.50;;
70825;SDS011;58446;41.490;22.098;2023-03-11T09:28:30;4.60;;;2.05;;
70825;SDS011;58446;41.490;22.098;2023-03-11T09:30:56;5.90;;;2.50;;
70825;SDS011;58446;41.490;22.098;2023-03-11T09:33:22;4.90;;;2.50;;
70825;SDS011;58446;41.490;22.098;2023-03-11T09:35:47;5.50;;;2.40;;
70825;SDS011;58446;41.490;22.098;2023-03-11T09:38:13;4.90;;;1.88;;
70825;SDS011;58446;41.490;22.098;2023-03-11T09:40:48;4.87;;;2.37;;
70825;SDS011;58446;41.490;22.098;2023-03-11T09:49:04;10.85;;;5.82;;
70825;SDS011;58446;41.490;22.098;2023-03-11T09:51:41;7.88;;;3.80;;
70825;SDS011;58446;41.490;22.098;2023-03-11T09:54:10;6.32;;;2.85;;
70825;SDS011;58446;41.490;22.098;2023-03-11T09:56:37;9.60;;;5.00;;
70825;SDS011;58446;41.490;22.098;2023-03-11T09:59:08;6.35;;;3.30;;
70825;SDS011;58446;41.490;22.098;2023-03-11T10:01:41;6.55;;;2.50;;
70825;SDS011;58446;41.490;22.098;2023-03-11T10:04:31;7.00;;;2.88;;
70825;SDS011;58446;41.490;22.098;2023-03-11T10:07:05;4.88;;;2.53;;
70825;SDS011;58446;41.490;22.098;2023-03-11T10:09:42;5.07;;;2.47;;
70825;SDS011;58446;41.490;22.098;2023-03-11T10:21:09;4.78;;;2.58;;
70825;SDS011;58446;41.490;22.098;2023-03-11T10:26:47;8.18;;;3.55;;
70825;SDS011;58446;41.490;22.098;2023-03-11T10:29:27;5.43;;;2.28;;
70825;SDS011;58446;41.490;22.098;2023-03-11T10:34:52;5.60;;;2.20;;
70825;SDS011;58446;41.490;22.098;2023-03-11T10:37:24;6.17;;;2.50;;
70825;SDS011;58446;41.490;22.098;2023-03-11T10:39:53;6.30;;;2.30;;
70825;SDS011;58446;41.490;22.098;2023-03-11T10:42:21;5.05;;;1.90;;
70825;SDS011;58446;41.490;22.098;2023-03-11T10:44:49;8.85;;;4.75;;
70825;SDS011;58446;41.490;22.098;2023-03-11T10:47:16;5.87;;;3.20;;
70825;SDS011;58446;41.490;22.098;2023-03-11T10:49:47;8.40;;;4.30;;
70825;SDS011;58446;41.490;22.098;2023-03-11T10:52:13;6.18;;;3.17;;
70825;SDS011;58446;41.490;22.098;2023-03-11T10:54:40;7.75;;;3.38;;
70825;SDS011;58446;41.490;22.098;2023-03-11T10:57:32;7.40;;;3.07;;
70825;SDS011;58446;41.490;22.098;2023-03-11T10:59:59;6.85;;;3.40;;
70825;SDS011;58446;41.490;22.098;2023-03-11T11:02:27;9.43;;;3.60;;
70825;SDS011;58446;41.490;22.098;2023-03-11T11:07:45;7.80;;;3.28;;
70825;SDS011;58446;41.490;22.098;2023-03-11T11:15:42;7.13;;;2.80;;
70825;SDS011;58446;41.490;22.098;2023-03-11T11:18:23;8.05;;;3.88;;
70825;SDS011;58446;41.490;22.098;2023-03-11T11:21:08;6.93;;;3.50;;
70825;SDS011;58446;41.490;22.098;2023-03-11T11:23:50;8.50;;;4.40;;
70825;SDS011;58446;41.490;22.098;2023-03-11T11:26:37;8.27;;;4.63;;
70825;SDS011;58446;41.490;22.098;2023-03-11T11:31:34;7.60;;;4.03;;
70825;SDS011;58446;41.490;22.098;2023-03-11T11:34:01;9.57;;;3.53;;
70825;SDS011;58446;41.490;22.098;2023-03-11T11:36:31;6.55;;;3.53;;
70825;SDS011;58446;41.490;22.098;2023-03-11T11:39:05;7.68;;;4.45;;
70825;SDS011;58446;41.490;22.098;2023-03-11T11:41:40;7.47;;;3.80;;
70825;SDS011;58446;41.490;22.098;2023-03-11T11:44:08;7.75;;;3.67;;
70825;SDS011;58446;41.490;22.098;2023-03-11T11:47:24;8.13;;;4.20;;
70825;SDS011;58446;41.490;22.098;2023-03-11T11:49:49;8.07;;;5.05;;
70825;SDS011;58446;41.490;22.098;2023-03-11T11:52:19;7.30;;;5.20;;
70825;SDS011;58446;41.490;22.098;2023-03-11T11:54:53;9.73;;;5.17;;
70825;SDS011;58446;41.490;22.098;2023-03-11T11:57:23;7.68;;;3.38;;
70825;SDS011;58446;41.490;22.098;2023-03-11T11:59:49;7.32;;;4.18;;
70825;SDS011;58446;41.490;22.098;2023-03-11T12:11:06;10.50;;;5.00;;
70825;SDS011;58446;41.490;22.098;2023-03-11T12:16:42;16.58;;;9.63;;
70825;SDS011;58446;41.490;22.098;2023-03-11T12:24:54;18.55;;;10.70;;
70825;SDS011;58446;41.490;22.098;2023-03-11T12:29:59;18.33;;;9.98;;
70825;SDS011;58446;41.490;22.098;2023-03-11T12:32:38;13.63;;;7.33;;
70825;SDS011;58446;41.490;22.098;2023-03-11T12:35:09;15.15;;;8.48;;
70825;SDS011;58446;41.490;22.098;2023-03-11T12:37:46;17.50;;;8.45;;
70825;SDS011;58446;41.490;22.098;2023-03-11T12:45:50;12.47;;;6.90;;
70825;SDS011;58446;41.490;22.098;2023-03-11T12:48:29;11.27;;;6.03;;
70825;SDS011;58446;41.490;22.098;2023-03-11T12:51:00;14.10;;;7.43;;
70825;SDS011;58446;41.490;22.098;2023-03-11T13:01:36;18.25;;;9.15;;
70825;SDS011;58446;41.490;22.098;2023-03-11T13:04:17;26.73;;;15.68;;
70825;SDS011;58446;41.490;22.098;2023-03-11T13:06:59;15.13;;;9.60;;
70825;SDS011;58446;41.490;22.098;2023-03-11T13:09:33;14.68;;;8.68;;
70825;SDS011;58446;41.490;22.098;2023-03-11T13:11:59;13.40;;;8.33;;
70825;SDS011;58446;41.490;22.098;2023-03-11T13:14:26;18.38;;;10.80;;
70825;SDS011;58446;41.490;22.098;2023-03-11T13:19:54;17.30;;;11.52;;
70825;SDS011;58446;41.490;22.098;2023-03-11T13:25:24;16.77;;;9.02;;
70825;SDS011;58446;41.490;22.098;2023-03-11T13:27:56;13.18;;;8.63;;
70825;SDS011;58446;41.490;22.098;2023-03-11T13:30:37;15.77;;;9.43;;
70825;SDS011;58446;41.490;22.098;2023-03-11T13:33:14;16.10;;;9.38;;
70825;SDS011;58446;41.490;22.098;2023-03-11T13:36:00;18.67;;;9.87;;
70825;SDS011;58446;41.490;22.098;2023-03-11T13:41:26;15.07;;;9.73;;
70825;SDS011;58446;41.490;22.098;2023-03-11T13:43:58;11.80;;;8.02;;
70825;SDS011;58446;41.490;22.098;2023-03-11T13:46:33;11.98;;;8.18;;
70825;SDS011;58446;41.490;22.098;2023-03-11T13:49:20;11.77;;;6.40;;
70825;SDS011;58446;41.490;22.098;2023-03-11T13:51:48;18.23;;;10.25;;
70825;SDS011;58446;41.490;22.098;2023-03-11T13:56:54;19.15;;;10.50;;
70825;SDS011;58446;41.490;22.098;2023-03-11T13:59:23;16.75;;;10.32;;
70825;SDS011;58446;41.490;22.098;2023-03-11T14:01:56;13.07;;;8.80;;
70825;SDS011;58446;41.490;22.098;2023-03-11T14:04:31;14.68;;;9.63;;
70825;SDS011;58446;41.490;22.098;2023-03-11T14:07:00;15.60;;;10.50;;
70825;SDS011;58446;41.490;22.098;2023-03-11T14:09:47;16.52;;;9.70;;
70825;SDS011;58446;41.490;22.098;2023-03-11T14:12:13;16.00;;;11.37;;
70825;SDS011;58446;41.490;22.098;2023-03-11T14:14:47;16.58;;;11.05;;
70825;SDS011;58446;41.490;22.098;2023-03-11T14:17:22;16.52;;;11.48;;
70825;SDS011;58446;41.490;22.098;2023-03-11T14:22:45;12.35;;;8.52;;
70825;SDS011;58446;41.490;22.098;2023-03-11T14:25:15;14.75;;;8.38;;
70825;SDS011;58446;41.490;22.098;2023-03-11T14:27:51;13.38;;;8.40;;
70825;SDS011;58446;41.490;22.098;2023-03-11T14:30:20;15.20;;;9.03;;
70825;SDS011;58446;41.490;22.098;2023-03-11T14:35:28;15.65;;;8.70;;
70825;SDS011;58446;41.490;22.098;2023-03-11T14:37:55;16.75;;;9.93;;
70825;SDS011;58446;41.490;22.098;2023-03-11T14:40:34;16.30;;;10.07;;
70825;SDS011;58446;41.490;22.098;2023-03-11T14:43:06;14.93;;;8.63;;
70825;SDS011;58446;41.490;22.098;2023-03-11T14:45:34;12.02;;;7.30;;
70825;SDS011;58446;41.490;22.098;2023-03-11T14:50:48;15.93;;;9.15;;
70825;SDS011;58446;41.490;22.098;2023-03-11T14:53:36;12.37;;;7.43;;
70825;SDS011;58446;41.490;22.098;2023-03-11T14:56:07;14.07;;;8.82;;
70825;SDS011;58446;41.490;22.098;2023-03-11T14:58:39;14.38;;;7.55;;
70825;SDS011;58446;41.490;22.098;2023-03-11T15:06:32;15.83;;;9.93;;
70825;SDS011;58446;41.490;22.098;2023-03-11T15:09:12;14.20;;;8.18;;
70825;SDS011;58446;41.490;22.098;2023-03-11T15:11:44;14.95;;;9.02;;
70825;SDS011;58446;41.490;22.098;2023-03-11T15:14:31;15.07;;;9.10;;
70825;SDS011;58446;41.490;22.098;2023-03-11T15:17:13;19.75;;;11.48;;
70825;SDS011;58446;41.490;22.098;2023-03-11T15:19:42;15.03;;;8.63;;
70825;SDS011;58446;41.490;22.098;2023-03-11T15:22:21;22.02;;;15.65;;
70825;SDS011;58446;41.490;22.098;2023-03-11T15:24:51;15.88;;;9.48;;
70825;SDS011;58446;41.490;22.098;2023-03-11T15:27:31;13.82;;;9.18;;
70825;SDS011;58446;41.490;22.098;2023-03-11T15:29:58;13.33;;;7.60;;
70825;SDS011;58446;41.490;22.098;2023-03-11T15:35:01;17.95;;;9.88;;
70825;SDS011;58446;41.490;22.098;2023-03-11T15:37:37;13.63;;;7.35;;
70825;SDS011;58446;41.490;22.098;2023-03-11T15:45:50;16.88;;;10.38;;
70825;SDS011;58446;41.490;22.098;2023-03-11T15:48:20;11.50;;;6.07;;
70825;SDS011;58446;41.490;22.098;2023-03-11T15:50:53;13.45;;;7.70;;
70825;SDS011;58446;41.490;22.098;2023-03-11T15:53:20;14.82;;;8.77;;
70825;SDS011;58446;41.490;22.098;2023-03-11T15:55:47;13.63;;;8.03;;
70825;SDS011;58446;41.490;22.098;2023-03-11T15:58:13;15.23;;;8.90;;
70825;SDS011;58446;41.490;22.098;2023-03-11T16:00:48;13.57;;;8.07;;
70825;SDS011;58446;41.490;22.098;2023-03-11T16:03:16;17.15;;;9.50;;
70825;SDS011;58446;41.490;22.098;2023-03-11T16:05:43;20.77;;;11.73;;
70825;SDS011;58446;41.490;22.098;2023-03-11T16:08:08;19.73;;;12.93;;
70825;SDS011;58446;41.490;22.098;2023-03-11T16:10:35;33.03;;;19.15;;
70825;SDS011;58446;41.490;22.098;2023-03-11T16:13:00;27.57;;;17.57;;
70825;SDS011;58446;41.490;22.098;2023-03-11T16:15:28;23.83;;;13.50;;
70825;SDS011;58446;41.490;22.098;2023-03-11T16:17:59;20.67;;;15.15;;